Time;durP1;ratioP1;P1;durP2;ratioP2;P2;SDS_P1;SDS_P2;PMS_P1;PMS_P2;Temp;Humidity;BMP_temperature;BMP_pressure;BME280_temperature;BME280_humidity;BME280_pressure;Samples;Min_cycle;Max_cycle;Signal;HPM_P1;HPM_P2
2022/12/06 00:01:43;;;;;;;0.20;0.20;;;4.50;99.90;;;;;;5024760;28;20193;-83
2022/12/06 00:04:11;;;;;;;0.30;0.30;;;4.50;99.90;;;;;;5029653;28;20187;-85
2022/12/06 00:06:40;;;;;;;0.30;0.30;;;4.50;99.90;;;;;;5030411;28;20553;-84
2022/12/06 00:09:07;;;;;;;0.30;0.30;;;4.50;99.90;;;;;;5026764;28;20471;-84
2022/12/06 00:11:34;;;;;;;0.30;0.30;;;4.50;99.90;;;;;;5026577;28;20809;-84
2022/12/06 00:14:03;;;;;;;0.30;0.30;;;4.40;99.90;;;;;;5019589;28;20454;-84
2022/12/06 00:16:29;;;;;;;0.30;0.30;;;4.50;99.90;;;;;;5023806;28;20443;-84
2022/12/06 00:18:55;;;;;;;0.30;0.30;;;4.50;99.90;;;;;;5031285;28;20446;-83
2022/12/06 00:21:24;;;;;;;0.30;0.30;;;4.50;99.90;;;;;;5028883;28;20989;-85
2022/12/06 00:23:52;;;;;;;0.30;0.30;;;4.50;99.90;;;;;;5021299;28;20804;-85
2022/12/06 00:26:19;;;;;;;0.20;0.20;;;4.50;99.90;;;;;;5026703;28;20434;-85
2022/12/06 00:28:45;;;;;;;0.30;0.30;;;4.50;99.90;;;;;;5028613;28;20461;-85
2022/12/06 00:31:17;;;;;;;0.30;0.30;;;4.50;99.90;;;;;;5028376;28;20497;-85
2022/12/06 00:33:43;;;;;;;0.30;0.30;;;4.50;99.90;;;;;;5029524;28;21212;-85
2022/12/06 00:36:36;;;;;;;0.30;0.30;;;4.50;99.90;;;;;;5029877;28;20442;-85
2022/12/06 00:39:05;;;;;;;0.30;0.30;;;4.50;99.90;;;;;;5027809;28;20196;-85
2022/12/06 00:41:30;;;;;;;0.30;0.30;;;4.50;99.90;;;;;;5026526;28;20481;-85
2022/12/06 00:43:56;;;;;;;0.30;0.30;;;4.50;99.90;;;;;;5029408;28;20446;-84
2022/12/06 00:46:25;;;;;;;0.30;0.30;;;4.40;99.90;;;;;;5026209;28;20191;-85
2022/12/06 00:48:52;;;;;;;0.30;0.30;;;4.40;99.90;;;;;;5028025;28;20191;-84
2022/12/06 00:51:19;;;;;;;0.30;0.30;;;4.40;99.90;;;;;;5025997;28;20551;-84
2022/12/06 00:53:44;;;;;;;0.30;0.30;;;4.40;99.90;;;;;;5018252;28;20884;-84
2022/12/06 00:56:10;;;;;;;0.30;0.30;;;4.40;99.90;;;;;;5023729;28;20570;-85
2022/12/06 00:58:36;;;;;;;0.30;0.30;;;4.40;99.90;;;;;;5018107;28;20245;-84
2022/12/06 01:01:10;;;;;;;0.30;0.30;;;4.40;99.90;;;;;;5026119;28;20520;-84
2022/12/06 01:03:36;;;;;;;0.30;0.30;;;4.30;99.90;;;;;;5029394;28;20187;-85
2022/12/06 01:06:04;;;;;;;0.30;0.30;;;4.40;99.90;;;;;;5029580;28;20788;-84
2022/12/06 01:08:31;;;;;;;0.30;0.30;;;4.30;99.90;;;;;;5028961;28;20647;-85
2022/12/06 01:10:57;;;;;;;0.30;0.30;;;4.40;99.90;;;;;;5026872;28;20844;-84
2022/12/06 01:13:22;;;;;;;0.30;0.30;;;4.40;99.90;;;;;;5024348;28;20446;-85
2022/12/06 01:15:48;;;;;;;0.30;0.30;;;4.30;99.90;;;;;;5026177;28;20821;-84
2022/12/06 01:18:13;;;;;;;0.30;0.30;;;4.30;99.90;;;;;;5024535;28;20660;-83
2022/12/06 01:20:39;;;;;;;0.40;0.40;;;4.30;99.90;;;;;;5026632;28;20241;-85
2022/12/06 01:23:04;;;;;;;0.30;0.30;;;4.30;99.90;;;;;;5028255;28;20187;-84
2022/12/06 01:25:31;;;;;;;0.30;0.30;;;4.30;99.90;;;;;;5028472;28;20662;-84
2022/12/06 01:27:57;;;;;;;0.30;0.30;;;4.30;99.90;;;;;;5027215;28;20194;-85
2022/12/06 01:30:23;;;;;;;0.40;0.40;;;4.30;99.90;;;;;;5024413;28;20498;-84
2022/12/06 01:32:48;;;;;;;0.30;0.30;;;4.30;99.90;;;;;;5028528;28;20191;-85
2022/12/06 01:35:14;;;;;;;0.30;0.30;;;4.30;99.90;;;;;;5027204;28;20198;-85
2022/12/06 01:37:39;;;;;;;0.30;0.30;;;4.30;99.90;;;;;;5028152;28;20640;-84
2022/12/06 01:40:06;;;;;;;0.30;0.30;;;4.30;99.90;;;;;;5021028;28;20187;-84
2022/12/06 01:42:31;;;;;;;0.30;0.30;;;4.30;99.90;;;;;;5025153;28;20707;-84
2022/12/06 01:44:58;;;;;;;0.30;0.30;;;4.40;99.90;;;;;;5026699;28;20541;-85
2022/12/06 01:47:29;;;;;;;0.30;0.30;;;4.30;99.90;;;;;;5032985;28;20191;-84
2022/12/06 01:50:02;;;;;;;0.30;0.30;;;4.30;99.90;;;;;;5035323;28;20486;-84
2022/12/06 01:52:38;;;;;;;0.30;0.30;;;4.30;99.90;;;;;;5027395;28;20443;-84
2022/12/06 01:55:08;;;;;;;0.30;0.30;;;4.30;99.90;;;;;;5027401;28;20532;-84
2022/12/06 01:57:34;;;;;;;0.30;0.30;;;4.30;99.90;;;;;;5026539;28;20965;-84
2022/12/06 02:00:00;;;;;;;0.40;0.40;;;4.30;99.90;;;;;;5028340;28;20458;-85
2022/12/06 02:02:26;;;;;;;0.30;0.30;;;4.30;99.90;;;;;;5025713;28;20180;-83
2022/12/06 02:04:52;;;;;;;0.30;0.30;;;4.30;99.90;;;;;;5023361;28;20456;-83
2022/12/06 02:07:19;;;;;;;0.30;0.30;;;4.30;99.90;;;;;;5027457;28;20570;-84
2022/12/06 02:09:46;;;;;;;0.30;0.30;;;4.30;99.90;;;;;;5028413;28;20489;-84
2022/12/06 02:12:14;;;;;;;0.30;0.30;;;4.30;99.90;;;;;;5019901;28;20441;-84
2022/12/06 02:14:43;;;;;;;0.30;0.30;;;4.30;99.90;;;;;;5026735;28;20457;-84
2022/12/06 02:17:24;;;;;;;0.30;0.30;;;4.30;99.90;;;;;;5024485;28;20442;-84
2022/12/06 02:19:56;;;;;;;0.30;0.30;;;4.30;99.90;;;;;;5020645;28;20810;-84
2022/12/06 02:22:36;;;;;;;0.30;0.30;;;4.30;99.90;;;;;;5026501;28;20461;-84
2022/12/06 02:25:39;;;;;;;0.30;0.30;;;4.30;99.90;;;;;;5028382;28;20442;-84
2022/12/06 02:28:26;;;;;;;0.30;0.30;;;4.30;99.90;;;;;;5021777;28;20437;-84
2022/12/06 02:30:52;;;;;;;0.30;0.30;;;4.40;99.90;;;;;;5025107;28;20496;-84
2022/12/06 02:33:22;;;;;;;0.30;0.30;;;4.30;99.90;;;;;;5025499;28;20450;-84
2022/12/06 02:36:04;;;;;;;0.30;0.30;;;4.40;99.90;;;;;;5019283;28;20206;-84
2022/12/06 02:38:58;;;;;;;0.30;0.30;;;4.40;99.90;;;;;;5031686;28;20425;-85
2022/12/06 02:41:35;;;;;;;0.30;0.30;;;4.30;99.90;;;;;;5029863;28;20489;-84
2022/12/06 02:44:07;;;;;;;0.30;0.30;;;4.40;99.90;;;;;;5015096;28;20466;-84
2022/12/06 02:46:36;;;;;;;0.20;0.20;;;4.40;99.90;;;;;;5024520;28;20500;-84
2022/12/06 02:49:05;;;;;;;0.30;0.30;;;4.30;99.90;;;;;;5030044;28;20446;-83
2022/12/06 02:51:33;;;;;;;0.30;0.30;;;4.30;99.90;;;;;;5017308;28;20455;-84
2022/12/06 02:54:01;;;;;;;0.30;0.30;;;4.30;99.90;;;;;;5029131;28;20945;-84
2022/12/06 02:56:28;;;;;;;0.30;0.30;;;4.30;99.90;;;;;;5013564;28;20454;-84
2022/12/06 02:58:53;;;;;;;0.23;0.23;;;4.40;99.90;;;;;;5027317;28;20456;-83
2022/12/06 03:01:24;;;;;;;0.30;0.30;;;4.30;99.90;;;;;;5031322;28;20446;-84
2022/12/06 03:04:30;;;;;;;0.30;0.30;;;4.40;99.90;;;;;;5030880;28;20242;-84
2022/12/06 03:07:23;;;;;;;0.30;0.30;;;4.30;99.90;;;;;;5024846;28;20441;-83
2022/12/06 03:10:14;;;;;;;0.30;0.30;;;4.20;99.90;;;;;;5026776;28;20596;-84
2022/12/06 03:12:46;;;;;;;0.30;0.30;;;4.30;99.90;;;;;;5029106;28;21045;-84
2022/12/06 03:15:22;;;;;;;0.30;0.30;;;4.30;99.90;;;;;;5019900;28;20947;-83
2022/12/06 03:17:56;;;;;;;0.30;0.30;;;4.30;99.90;;;;;;5026636;28;20465;-84
2022/12/06 03:20:41;;;;;;;0.30;0.30;;;4.30;99.90;;;;;;5029597;28;20480;-84
2022/12/06 03:23:17;;;;;;;0.30;0.30;;;4.30;99.90;;;;;;5037774;28;20496;-84
2022/12/06 03:25:45;;;;;;;0.30;0.30;;;4.30;99.90;;;;;;5025425;28;20516;-84
2022/12/06 03:28:14;;;;;;;0.30;0.30;;;4.30;99.90;;;;;;5027260;28;20545;-85
2022/12/06 03:30:44;;;;;;;0.40;0.40;;;4.30;99.90;;;;;;5027743;28;20478;-84
2022/12/06 03:33:12;;;;;;;0.30;0.30;;;4.30;99.90;;;;;;5021917;28;20434;-84
2022/12/06 03:35:39;;;;;;;0.30;0.30;;;4.30;99.90;;;;;;5045051;28;20496;-84
2022/12/06 03:38:17;;;;;;;0.30;0.30;;;4.30;99.90;;;;;;5027954;28;20430;-84
2022/12/06 03:40:46;;;;;;;0.30;0.30;;;4.30;99.90;;;;;;5027054;28;20490;-84
2022/12/06 03:43:12;;;;;;;0.30;0.30;;;4.30;99.90;;;;;;5028510;28;20544;-84
2022/12/06 03:45:45;;;;;;;0.40;0.40;;;4.30;99.90;;;;;;5026422;28;20525;-84
2022/12/06 03:48:24;;;;;;;0.30;0.30;;;4.40;99.90;;;;;;5031045;28;20516;-84
2022/12/06 03:50:56;;;;;;;0.30;0.30;;;4.30;99.90;;;;;;5021560;28;20543;-84
2022/12/06 03:53:22;;;;;;;0.30;0.30;;;4.20;99.90;;;;;;5016546;28;20434;-85
2022/12/06 03:55:47;;;;;;;0.27;0.27;;;4.30;99.90;;;;;;5030120;28;20464;-84
2022/12/06 03:58:13;;;;;;;0.23;0.23;;;4.30;99.90;;;;;;5026915;28;20188;-83
2022/12/06 04:00:38;;;;;;;0.40;0.40;;;4.30;99.90;;;;;;5029593;28;20555;-84
2022/12/06 04:03:04;;;;;;;0.30;0.30;;;4.30;99.90;;;;;;5022132;28;20187;-84
2022/12/06 04:05:29;;;;;;;0.30;0.30;;;4.30;99.90;;;;;;5030385;28;20188;-84
2022/12/06 04:07:55;;;;;;;0.30;0.30;;;4.30;99.90;;;;;;5030114;28;20711;-84
2022/12/06 04:10:21;;;;;;;0.30;0.30;;;4.30;99.90;;;;;;5029001;28;20277;-84
2022/12/06 04:12:59;;;;;;;0.30;0.30;;;4.30;99.90;;;;;;5028374;28;20192;-84
2022/12/06 04:15:25;;;;;;;0.30;0.30;;;4.30;99.90;;;;;;5026525;28;20462;-84
2022/12/06 04:23:51;;;;;;;0.30;0.30;;;4.30;99.90;;;;;;5019032;28;20481;-84
2022/12/06 04:26:20;;;;;;;0.30;0.30;;;4.30;99.90;;;;;;5016840;28;20462;-84
2022/12/06 04:39:44;;;;;;;0.30;0.30;;;4.30;99.90;;;;;;5021060;28;20495;-84
2022/12/06 04:44:54;;;;;;;0.20;0.20;;;4.30;99.90;;;;;;5014016;28;20509;-84
2022/12/06 04:47:19;;;;;;;0.30;0.30;;;4.30;99.90;;;;;;5029852;28;20525;-85
2022/12/06 04:49:45;;;;;;;0.30;0.30;;;4.30;99.90;;;;;;5026429;28;20782;-84
2022/12/06 04:52:11;;;;;;;0.30;0.30;;;4.30;99.90;;;;;;5027341;28;20191;-85
2022/12/06 04:54:37;;;;;;;0.30;0.30;;;4.20;99.90;;;;;;5022893;28;20184;-85
2022/12/06 04:57:03;;;;;;;0.30;0.30;;;4.30;99.90;;;;;;5027701;28;20214;-84
2022/12/06 04:59:29;;;;;;;0.30;0.30;;;4.30;99.90;;;;;;5030944;28;20426;-84
2022/12/06 05:01:55;;;;;;;0.30;0.30;;;4.20;99.90;;;;;;5025899;28;20808;-85
2022/12/06 05:04:22;;;;;;;0.40;0.40;;;4.20;99.90;;;;;;5030063;28;20278;-84
2022/12/06 05:06:47;;;;;;;0.30;0.30;;;4.20;99.90;;;;;;5023491;28;20520;-84
2022/12/06 05:09:14;;;;;;;0.30;0.30;;;4.20;99.90;;;;;;5025851;28;20429;-83
2022/12/06 05:11:40;;;;;;;0.23;0.23;;;4.10;99.90;;;;;;5018249;28;20275;-85
2022/12/06 05:14:05;;;;;;;0.33;0.33;;;4.20;99.90;;;;;;5017178;28;20533;-84
2022/12/06 05:16:31;;;;;;;0.30;0.30;;;4.10;99.90;;;;;;5022977;28;20179;-84
2022/12/06 05:18:56;;;;;;;0.30;0.30;;;4.10;99.90;;;;;;5034025;28;20183;-84
2022/12/06 05:21:23;;;;;;;0.30;0.30;;;4.10;99.90;;;;;;5029572;28;20226;-83
2022/12/06 05:23:52;;;;;;;0.30;0.30;;;4.00;99.90;;;;;;5026855;28;20194;-84
2022/12/06 05:26:19;;;;;;;0.30;0.30;;;4.10;99.90;;;;;;5016512;28;20902;-84
2022/12/06 05:28:45;;;;;;;0.30;0.30;;;4.00;99.90;;;;;;5038079;28;20434;-84
2022/12/06 05:31:12;;;;;;;0.30;0.30;;;4.10;99.90;;;;;;5027654;28;20492;-84
2022/12/06 05:33:38;;;;;;;0.30;0.30;;;4.00;99.90;;;;;;5029547;28;20867;-84
2022/12/06 05:36:08;;;;;;;0.30;0.30;;;4.00;99.90;;;;;;5029729;28;20468;-84
2022/12/06 05:38:34;;;;;;;0.40;0.40;;;4.00;99.90;;;;;;5025030;28;20469;-84
2022/12/06 05:41:00;;;;;;;0.30;0.30;;;4.00;99.90;;;;;;5017056;28;20482;-84
2022/12/06 05:43:27;;;;;;;0.40;0.40;;;4.00;99.90;;;;;;5027420;28;20464;-84
2022/12/06 05:45:53;;;;;;;0.30;0.30;;;4.00;99.90;;;;;;5025119;28;20446;-84
2022/12/06 05:48:18;;;;;;;0.30;0.30;;;4.00;99.90;;;;;;5019477;28;20462;-84
2022/12/06 05:50:46;;;;;;;0.30;0.30;;;4.00;99.90;;;;;;5024694;28;20226;-84
2022/12/06 05:53:11;;;;;;;0.30;0.30;;;4.10;99.90;;;;;;5031102;28;20249;-84
2022/12/06 05:55:37;;;;;;;0.30;0.30;;;4.00;99.90;;;;;;5027223;28;21259;-85
2022/12/06 05:58:02;;;;;;;0.30;0.30;;;4.00;99.90;;;;;;5017361;28;20288;-83
2022/12/06 06:00:28;;;;;;;0.30;0.30;;;3.90;99.90;;;;;;5027769;28;20187;-84
2022/12/06 06:02:54;;;;;;;0.30;0.30;;;3.90;99.90;;;;;;5026032;28;20648;-84
2022/12/06 06:05:19;;;;;;;0.30;0.30;;;4.00;99.90;;;;;;5026105;28;20539;-84
2022/12/06 06:07:45;;;;;;;0.30;0.30;;;3.90;99.90;;;;;;5025566;28;20211;-84
2022/12/06 06:10:10;;;;;;;0.40;0.40;;;3.90;99.90;;;;;;5018762;28;20301;-83
2022/12/06 06:12:36;;;;;;;0.30;0.30;;;3.90;99.90;;;;;;5025934;28;20197;-83
2022/12/06 06:15:05;;;;;;;0.30;0.30;;;3.90;99.90;;;;;;5027259;28;20191;-83
2022/12/06 06:17:32;;;;;;;0.30;0.30;;;3.90;99.90;;;;;;5024699;28;20195;-83
2022/12/06 06:19:57;;;;;;;0.30;0.30;;;3.90;99.90;;;;;;5027216;28;20434;-83
2022/12/06 06:22:23;;;;;;;0.30;0.30;;;3.90;99.90;;;;;;5029606;28;20449;-83
2022/12/06 06:24:48;;;;;;;0.30;0.30;;;3.90;99.90;;;;;;5024746;28;20623;-83
2022/12/06 06:27:14;;;;;;;0.30;0.30;;;4.00;99.90;;;;;;5024974;28;20461;-84
2022/12/06 06:29:39;;;;;;;0.30;0.30;;;4.00;99.90;;;;;;5018930;28;20238;-86
2022/12/06 06:32:05;;;;;;;0.30;0.30;;;4.00;99.90;;;;;;5025777;28;20546;-84
2022/12/06 06:34:30;;;;;;;0.30;0.30;;;4.00;99.90;;;;;;5025637;28;20196;-85
2022/12/06 06:36:56;;;;;;;0.30;0.30;;;3.90;99.90;;;;;;5026037;28;20223;-84
2022/12/06 06:39:21;;;;;;;0.40;0.40;;;3.90;99.90;;;;;;5013210;28;20207;-84
2022/12/06 06:41:47;;;;;;;0.30;0.30;;;3.90;99.90;;;;;;5022404;28;20298;-85
2022/12/06 06:44:13;;;;;;;0.30;0.30;;;3.90;99.90;;;;;;5025296;28;20191;-85
2022/12/06 06:46:38;;;;;;;0.30;0.30;;;3.90;99.90;;;;;;5026458;28;20647;-85
2022/12/06 06:49:04;;;;;;;0.30;0.30;;;4.00;99.90;;;;;;5022696;28;20658;-86
2022/12/06 06:51:31;;;;;;;0.30;0.30;;;3.90;99.90;;;;;;5023185;28;20215;-84
2022/12/06 06:53:57;;;;;;;0.30;0.30;;;3.90;99.90;;;;;;5025141;28;20669;-86
2022/12/06 06:56:22;;;;;;;0.30;0.30;;;3.90;99.90;;;;;;5024245;28;20549;-84
2022/12/06 06:58:48;;;;;;;0.30;0.30;;;4.00;99.90;;;;;;5024839;28;20449;-84
2022/12/06 07:01:18;;;;;;;0.30;0.30;;;3.90;99.90;;;;;;5023455;28;20199;-85
2022/12/06 07:03:43;;;;;;;0.30;0.30;;;3.90;99.90;;;;;;5027665;28;20194;-85
2022/12/06 07:06:09;;;;;;;0.30;0.30;;;3.90;99.90;;;;;;5023959;28;20450;-87
2022/12/06 07:08:36;;;;;;;0.30;0.30;;;3.90;99.90;;;;;;5037280;28;20196;-85
2022/12/06 07:11:02;;;;;;;0.30;0.30;;;3.90;99.90;;;;;;5018471;28;20223;-84
2022/12/06 07:13:28;;;;;;;0.30;0.30;;;3.90;99.90;;;;;;5026201;28;20450;-84
2022/12/06 07:15:54;;;;;;;0.30;0.30;;;3.90;99.90;;;;;;5023353;28;20950;-84
2022/12/06 07:18:20;;;;;;;0.40;0.40;;;3.90;99.90;;;;;;5023081;28;20442;-84
2022/12/06 07:20:47;;;;;;;0.30;0.30;;;3.90;99.90;;;;;;5025807;28;20809;-84
2022/12/06 07:23:13;;;;;;;0.30;0.30;;;3.90;99.90;;;;;;5023324;28;20550;-84
2022/12/06 07:25:38;;;;;;;0.30;0.30;;;3.90;99.90;;;;;;5028010;28;20563;-85
2022/12/06 07:28:04;;;;;;;0.30;0.30;;;3.90;99.90;;;;;;5020335;28;20838;-85
2022/12/06 07:30:30;;;;;;;0.30;0.30;;;3.90;99.90;;;;;;5023473;28;20251;-84
2022/12/06 07:32:57;;;;;;;0.40;0.40;;;3.90;99.90;;;;;;5023465;28;20269;-84
2022/12/06 07:35:23;;;;;;;0.30;0.30;;;3.90;99.90;;;;;;5022781;28;20914;-84
2022/12/06 07:37:49;;;;;;;0.30;0.30;;;3.80;99.90;;;;;;5027919;28;20456;-84
2022/12/06 07:40:15;;;;;;;0.20;0.20;;;3.80;99.90;;;;;;5027067;28;20474;-84
2022/12/06 07:45:25;;;;;;;0.30;0.30;;;3.80;99.90;;;;;;5025001;28;20470;-86
2022/12/06 07:47:51;;;;;;;0.20;0.20;;;3.80;99.90;;;;;;5025491;28;20820;-84
2022/12/06 07:50:19;;;;;;;0.30;0.30;;;3.80;99.90;;;;;;5022878;28;20227;-84
2022/12/06 07:52:47;;;;;;;0.30;0.30;;;3.80;99.90;;;;;;5022315;28;20175;-82
2022/12/06 07:55:13;;;;;;;0.30;0.30;;;3.90;99.90;;;;;;5028493;28;20545;-82
2022/12/06 07:57:39;;;;;;;0.30;0.30;;;3.90;99.90;;;;;;5024058;28;20474;-82
2022/12/06 08:00:07;;;;;;;0.20;0.20;;;3.90;99.90;;;;;;5019970;28;20489;-82
2022/12/06 08:02:33;;;;;;;0.30;0.30;;;3.90;99.90;;;;;;5027103;28;20496;-82
2022/12/06 08:04:59;;;;;;;0.30;0.30;;;3.80;99.90;;;;;;5025887;28;21072;-82
2022/12/06 08:07:25;;;;;;;0.20;0.20;;;3.90;99.90;;;;;;5022594;28;20180;-83
2022/12/06 08:09:54;;;;;;;0.30;0.30;;;3.90;99.90;;;;;;5027516;28;20211;-83
2022/12/06 08:12:20;;;;;;;0.40;0.40;;;3.80;99.90;;;;;;5022692;28;20450;-83
2022/12/06 08:14:48;;;;;;;0.23;0.23;;;3.90;99.90;;;;;;5025578;28;20461;-83
2022/12/06 08:17:14;;;;;;;0.30;0.30;;;3.80;99.90;;;;;;5028296;28;20446;-83
2022/12/06 08:19:40;;;;;;;0.37;0.37;;;3.90;99.90;;;;;;5030029;28;20831;-83
2022/12/06 08:22:06;;;;;;;0.30;0.30;;;3.80;99.90;;;;;;5027344;28;20434;-83
2022/12/06 08:24:31;;;;;;;0.30;0.30;;;3.80;99.90;;;;;;5028606;28;20200;-83
2022/12/06 08:26:58;;;;;;;0.30;0.30;;;3.80;99.90;;;;;;5028290;28;20238;-83
2022/12/06 08:29:24;;;;;;;0.40;0.40;;;3.80;99.90;;;;;;5028018;28;20715;-83
2022/12/06 08:31:49;;;;;;;0.30;0.30;;;3.90;99.90;;;;;;5026203;28;20468;-83
2022/12/06 08:34:15;;;;;;;0.37;0.37;;;3.90;99.90;;;;;;5030370;28;20437;-83
2022/12/06 08:36:41;;;;;;;0.30;0.30;;;3.80;99.90;;;;;;5026705;28;20194;-84
2022/12/06 08:39:10;;;;;;;0.30;0.30;;;3.80;99.90;;;;;;5028015;28;20469;-83
2022/12/06 08:41:54;;;;;;;0.30;0.30;;;3.80;99.90;;;;;;5027867;28;20603;-82
2022/12/06 08:44:20;;;;;;;0.40;0.40;;;3.80;99.90;;;;;;5030757;28;20422;-83
2022/12/06 08:46:46;;;;;;;0.30;0.30;;;3.80;99.90;;;;;;5027894;28;20449;-83
2022/12/06 08:49:13;;;;;;;0.30;0.30;;;3.80;99.90;;;;;;5030345;28;20464;-84
2022/12/06 08:51:39;;;;;;;0.30;0.30;;;3.70;99.90;;;;;;5030932;28;20533;-83
2022/12/06 08:54:07;;;;;;;0.40;0.40;;;3.80;99.90;;;;;;5026196;28;21089;-83
2022/12/06 08:56:32;;;;;;;0.40;0.40;;;3.80;99.90;;;;;;5024206;28;21239;-83
2022/12/06 08:58:58;;;;;;;0.40;0.40;;;3.80;99.90;;;;;;5025869;28;20504;-83
2022/12/06 09:01:31;;;;;;;0.30;0.30;;;3.70;99.90;;;;;;5026880;28;20454;-83
2022/12/06 09:03:58;;;;;;;0.40;0.40;;;3.70;99.90;;;;;;5028185;28;20283;-83
2022/12/06 09:06:24;;;;;;;0.20;0.20;;;3.70;99.90;;;;;;5028998;28;20450;-83
2022/12/06 09:08:49;;;;;;;0.30;0.30;;;3.80;99.90;;;;;;5026912;28;20488;-84
2022/12/06 09:11:16;;;;;;;0.33;0.33;;;3.80;99.90;;;;;;5024590;28;20309;-84
2022/12/06 09:13:42;;;;;;;0.30;0.30;;;3.80;99.90;;;;;;5024444;28;20175;-84
2022/12/06 09:16:14;;;;;;;0.30;0.30;;;3.80;99.90;;;;;;5026889;28;20468;-83
2022/12/06 09:18:40;;;;;;;0.40;0.40;;;3.80;99.90;;;;;;5025466;28;20446;-83
2022/12/06 09:21:07;;;;;;;0.30;0.30;;;3.70;99.90;;;;;;5024650;28;20489;-84
2022/12/06 09:23:33;;;;;;;0.30;0.30;;;3.70;99.90;;;;;;5029348;28;20195;-83
2022/12/06 09:25:59;;;;;;;0.30;0.30;;;3.70;99.90;;;;;;5027600;28;20442;-83
2022/12/06 09:28:25;;;;;;;0.30;0.30;;;3.70;99.90;;;;;;5021906;28;20444;-83
2022/12/06 09:30:51;;;;;;;0.40;0.40;;;3.60;99.90;;;;;;5020127;28;20234;-83
2022/12/06 09:33:16;;;;;;;0.30;0.30;;;3.70;99.90;;;;;;5028262;28;20550;-83
2022/12/06 09:35:42;;;;;;;0.40;0.40;;;3.70;99.90;;;;;;5030283;28;20446;-83
2022/12/06 09:38:08;;;;;;;0.30;0.30;;;3.70;99.90;;;;;;5028150;28;20222;-83
2022/12/06 09:40:52;;;;;;;0.30;0.30;;;3.70;99.90;;;;;;5028445;28;20632;-83
2022/12/06 09:43:44;;;;;;;0.30;0.30;;;3.60;99.90;;;;;;5030370;28;20445;-83
2022/12/06 09:46:37;;;;;;;0.40;0.40;;;3.60;99.90;;;;;;5023963;28;20478;-84
2022/12/06 09:49:15;;;;;;;0.37;0.37;;;3.60;99.90;;;;;;5027185;28;20485;-83
2022/12/06 09:52:15;;;;;;;0.40;0.40;;;3.60;99.90;;;;;;5027670;28;20465;-83
2022/12/06 09:54:54;;;;;;;0.40;0.40;;;3.60;99.90;;;;;;5016208;28;20806;-84
2022/12/06 09:57:39;;;;;;;0.40;0.40;;;3.60;99.90;;;;;;5023368;28;20777;-84
2022/12/06 10:00:13;;;;;;;0.37;0.37;;;3.60;99.90;;;;;;5021588;28;20504;-84
2022/12/06 10:03:17;;;;;;;0.30;0.30;;;3.60;99.90;;;;;;5024067;28;20431;-83
2022/12/06 10:05:56;;;;;;;0.30;0.30;;;3.70;99.90;;;;;;5027060;28;20453;-83
2022/12/06 10:08:32;;;;;;;0.30;0.30;;;3.60;99.90;;;;;;5042805;28;20473;-84
2022/12/06 10:11:04;;;;;;;0.30;0.30;;;3.60;99.90;;;;;;5028046;28;20492;-83
2022/12/06 10:14:15;;;;;;;0.30;0.30;;;3.60;99.90;;;;;;5025357;28;20504;-83
2022/12/06 10:16:49;;;;;;;0.30;0.30;;;3.60;99.90;;;;;;5027459;28;20446;-84
2022/12/06 10:19:31;;;;;;;0.30;0.30;;;3.60;99.90;;;;;;5026668;28;20988;-84
2022/12/06 10:22:05;;;;;;;0.30;0.30;;;3.60;99.90;;;;;;5023184;28;20585;-84
2022/12/06 10:24:43;;;;;;;0.30;0.30;;;3.60;99.90;;;;;;5020599;28;20977;-83
2022/12/06 10:27:20;;;;;;;0.33;0.33;;;3.60;99.90;;;;;;5026718;28;20437;-83
2022/12/06 10:30:09;;;;;;;0.40;0.40;;;3.60;99.90;;;;;;5025017;28;20565;-84
2022/12/06 10:32:47;;;;;;;0.30;0.30;;;3.60;99.90;;;;;;5025652;28;21022;-84
2022/12/06 10:35:23;;;;;;;0.40;0.40;;;3.60;99.90;;;;;;5024845;28;20442;-84
2022/12/06 10:37:48;;;;;;;0.30;0.30;;;3.60;99.90;;;;;;5026629;28;20544;-84
2022/12/06 10:40:44;;;;;;;0.30;0.30;;;3.60;99.90;;;;;;5021074;28;20549;-84
2022/12/06 10:43:18;;;;;;;0.30;0.30;;;3.60;99.90;;;;;;5027960;28;20191;-84
2022/12/06 10:49:06;;;;;;;0.30;0.30;;;3.60;99.90;;;;;;5026592;28;22006;-83
2022/12/06 10:52:03;;;;;;;0.40;0.40;;;3.70;99.90;;;;;;5013992;28;20893;-84
2022/12/06 10:54:47;;;;;;;0.30;0.30;;;3.60;99.90;;;;;;5030203;28;20541;-83
2022/12/06 10:57:20;;;;;;;0.30;0.30;;;3.70;99.90;;;;;;5028573;28;20442;-83
2022/12/06 10:59:53;;;;;;;0.30;0.30;;;3.60;99.90;;;;;;5023397;28;20446;-84
2022/12/06 11:02:47;;;;;;;0.30;0.30;;;3.60;99.90;;;;;;5024521;28;20445;-83
2022/12/06 11:05:23;;;;;;;0.30;0.30;;;3.60;99.90;;;;;;5026934;28;20446;-82
2022/12/06 11:07:53;;;;;;;0.30;0.30;;;3.60;99.90;;;;;;5032329;28;20438;-83
2022/12/06 11:10:27;;;;;;;0.30;0.30;;;3.60;99.90;;;;;;5026261;28;20492;-84
2022/12/06 11:13:21;;;;;;;0.30;0.30;;;3.60;99.90;;;;;;5038152;28;20449;-83
2022/12/06 11:16:16;;;;;;;0.30;0.30;;;3.60;99.90;;;;;;5014030;28;20461;-83
2022/12/06 11:18:43;;;;;;;0.30;0.30;;;3.70;99.90;;;;;;5032625;28;20426;-82
2022/12/06 11:21:30;;;;;;;0.30;0.30;;;3.70;99.90;;;;;;5030303;28;20429;-83
2022/12/06 11:24:06;;;;;;;0.30;0.30;;;3.60;99.90;;;;;;5029657;28;20456;-89
2022/12/06 11:26:52;;;;;;;0.27;0.27;;;3.70;99.90;;;;;;5033460;28;20476;-90
2022/12/06 11:29:17;;;;;;;0.30;0.30;;;3.70;99.90;;;;;;5029902;28;20493;-87
2022/12/06 11:31:53;;;;;;;0.23;0.23;;;3.70;99.90;;;;;;5028325;28;20486;-89
2022/12/06 11:34:21;;;;;;;0.40;0.40;;;3.70;99.90;;;;;;5031689;28;20222;-91
2022/12/06 11:36:50;;;;;;;0.40;0.40;;;3.70;99.90;;;;;;5032233;28;20507;-87
2022/12/06 11:39:16;;;;;;;0.40;0.40;;;3.70;99.90;;;;;;5032814;28;20977;-89
2022/12/06 11:41:46;;;;;;;0.30;0.30;;;3.70;99.90;;;;;;5036932;28;20546;-92
2022/12/06 11:44:17;;;;;;;0.30;0.30;;;3.80;99.90;;;;;;5028749;28;20477;-90
2022/12/06 11:46:44;;;;;;;0.30;0.30;;;3.70;99.90;;;;;;5028299;28;20434;-87
2022/12/06 11:49:33;;;;;;;0.30;0.30;;;3.80;99.90;;;;;;5029588;28;20449;-87
2022/12/06 11:52:17;;;;;;;0.30;0.30;;;3.80;99.90;;;;;;5030699;28;20950;-87
2022/12/06 11:54:50;;;;;;;0.30;0.30;;;3.60;99.90;;;;;;5028884;28;20538;-86
2022/12/06 11:57:28;;;;;;;0.30;0.30;;;3.80;99.90;;;;;;5028137;28;20453;-88
2022/12/06 12:00:22;;;;;;;0.30;0.30;;;3.80;99.90;;;;;;5030609;28;20942;-88
2022/12/06 12:02:51;;;;;;;0.30;0.30;;;3.90;99.90;;;;;;5017591;28;20446;-87
2022/12/06 12:05:29;;;;;;;0.20;0.20;;;3.80;99.90;;;;;;5028844;28;20451;-87
2022/12/06 12:08:01;;;;;;;0.40;0.40;;;3.80;99.90;;;;;;5026233;28;20445;-87
2022/12/06 12:10:42;;;;;;;0.30;0.30;;;3.80;99.90;;;;;;5027781;28;21065;-87
2022/12/06 12:16:00;;;;;;;0.30;0.30;;;3.70;99.90;;;;;;5027993;28;20523;-86
2022/12/06 12:18:33;;;;;;;0.30;0.30;;;3.70;99.90;;;;;;5025071;28;20448;-86
2022/12/06 12:21:00;;;;;;;0.30;0.30;;;3.70;99.90;;;;;;5023797;28;20454;-86
2022/12/06 12:23:33;;;;;;;0.30;0.30;;;3.60;99.90;;;;;;5031727;28;20492;-85
2022/12/06 12:25:59;;;;;;;0.30;0.30;;;3.80;99.90;;;;;;5029504;28;20456;-87
2022/12/06 12:28:31;;;;;;;0.30;0.30;;;3.80;99.90;;;;;;5030775;28;20839;-88
2022/12/06 12:31:07;;;;;;;0.30;0.30;;;3.70;99.90;;;;;;5031506;28;20222;-89
2022/12/06 12:33:33;;;;;;;0.30;0.30;;;3.70;99.90;;;;;;5031250;28;20941;-87
2022/12/06 12:36:01;;;;;;;0.30;0.30;;;3.70;99.90;;;;;;5028886;28;20496;-87
2022/12/06 12:38:59;;;;;;;0.30;0.30;;;3.80;99.90;;;;;;5030091;28;20172;-88
2022/12/06 12:41:28;;;;;;;0.30;0.30;;;3.90;99.90;;;;;;5008923;28;20482;-88
2022/12/06 12:43:56;;;;;;;0.30;0.30;;;3.90;99.90;;;;;;5029141;28;20442;-86
2022/12/06 12:46:23;;;;;;;0.30;0.30;;;4.00;99.90;;;;;;5030808;28;20442;-88
2022/12/06 12:48:50;;;;;;;0.30;0.30;;;3.80;99.90;;;;;;5030618;28;20442;-89
2022/12/06 12:51:37;;;;;;;0.30;0.30;;;3.80;99.90;;;;;;5030496;28;20547;-91
2022/12/06 12:54:21;;;;;;;0.30;0.30;;;3.70;99.90;;;;;;5032348;28;20456;-91
2022/12/06 12:56:47;;;;;;;0.30;0.30;;;3.60;99.90;;;;;;5032963;28;20563;-94
2022/12/06 12:59:16;;;;;;;0.30;0.30;;;3.70;99.90;;;;;;5022944;28;20419;-94
2022/12/06 13:01:54;;;;;;;0.30;0.30;;;3.60;99.90;;;;;;5031624;28;20463;-94
2022/12/06 13:04:32;;;;;;;0.30;0.30;;;3.50;99.90;;;;;;5033844;28;20432;-93
2022/12/06 13:07:05;;;;;;;0.30;0.30;;;3.60;99.90;;;;;;5021538;28;20442;-91
2022/12/06 13:09:51;;;;;;;0.40;0.40;;;3.60;99.90;;;;;;5022954;28;20945;-91
2022/12/06 13:12:28;;;;;;;0.30;0.30;;;3.50;99.90;;;;;;5030445;28;20478;-91
2022/12/06 13:15:27;;;;;;;0.40;0.40;;;3.60;99.90;;;;;;5030348;28;20443;-89
2022/12/06 13:17:58;;;;;;;0.30;0.30;;;3.70;99.90;;;;;;5020241;28;21242;-87
2022/12/06 13:20:28;;;;;;;0.30;0.30;;;3.70;99.90;;;;;;5025037;28;20442;-88
2022/12/06 13:23:02;;;;;;;0.40;0.40;;;3.70;99.90;;;;;;5024871;28;20500;-88
2022/12/06 13:25:28;;;;;;;0.30;0.30;;;3.70;99.90;;;;;;5027812;28;20450;-85
2022/12/06 13:27:56;;;;;;;0.30;0.30;;;3.70;99.90;;;;;;5018796;28;20438;-89
2022/12/06 13:30:24;;;;;;;0.40;0.40;;;3.60;99.90;;;;;;5021754;28;20204;-84
2022/12/06 13:32:59;;;;;;;0.40;0.40;;;3.60;99.90;;;;;;5020760;28;21018;-89
2022/12/06 13:35:33;;;;;;;0.40;0.40;;;3.60;99.90;;;;;;5027897;28;20953;-89
2022/12/06 13:38:19;;;;;;;0.30;0.30;;;3.60;99.90;;;;;;5037019;28;20487;-90
2022/12/06 13:40:45;;;;;;;0.33;0.33;;;3.50;99.90;;;;;;5022783;28;20837;-92
2022/12/06 13:43:31;;;;;;;0.40;0.40;;;3.60;99.90;;;;;;5020276;28;20439;-92
2022/12/06 13:46:21;;;;;;;0.30;0.30;;;3.60;99.90;;;;;;5009635;28;20441;-89